createdAt,value
2023-04-14T00:01:21.525Z,14.67
2023-04-14T00:03:48.673Z,15.13
2023-04-14T00:06:15.661Z,13.67
2023-04-14T00:08:42.545Z,15.77
2023-04-14T00:11:09.636Z,15.50
2023-04-14T00:13:37.038Z,14.93
2023-04-14T00:16:04.120Z,12.80
2023-04-14T00:18:31.058Z,14.20
2023-04-14T00:20:57.909Z,12.40
2023-04-14T00:23:24.798Z,12.40
2023-04-14T00:25:51.747Z,14.23
2023-04-14T00:28:18.624Z,14.87
2023-04-14T00:30:47.095Z,14.47
2023-04-14T00:33:14.085Z,13.77
2023-04-14T00:35:40.949Z,14.60
2023-04-14T00:38:07.911Z,13.50
2023-04-14T00:40:34.882Z,14.80
2023-04-14T00:43:01.737Z,14.77
2023-04-14T00:45:28.822Z,13.87
2023-04-14T00:47:56.087Z,14.13
2023-04-14T00:50:23.018Z,12.80
2023-04-14T00:52:51.353Z,13.37
2023-04-14T00:55:18.769Z,15.27
2023-04-14T00:57:46.099Z,12.97
2023-04-14T01:00:14.144Z,13.30
2023-04-14T01:02:41.959Z,14.00
2023-04-14T01:05:09.295Z,14.50
2023-04-14T01:07:36.457Z,14.23
2023-04-14T01:10:04.035Z,16.80
2023-04-14T01:12:56.000Z,16.50
2023-04-14T01:15:32.907Z,15.10
2023-04-14T01:18:08.143Z,15.77
2023-04-14T01:20:42.509Z,15.23
2023-04-14T01:23:11.864Z,16.53
2023-04-14T01:25:57.623Z,16.70
2023-04-14T01:28:24.503Z,16.37
2023-04-14T01:31:12.100Z,16.47
2023-04-14T01:33:41.499Z,16.37
2023-04-14T01:36:13.096Z,15.73
2023-04-14T01:38:41.374Z,17.20
2023-04-14T01:41:09.826Z,15.57
2023-04-14T01:43:38.079Z,15.40
2023-04-14T01:46:07.377Z,14.83
2023-04-14T01:48:34.487Z,14.97
2023-04-14T01:51:02.620Z,15.13
2023-04-14T01:53:31.342Z,14.63
2023-04-14T01:56:01.042Z,15.13
2023-04-14T01:58:30.633Z,14.60
2023-04-14T02:00:57.979Z,14.43
2023-04-14T02:03:26.003Z,14.30
2023-04-14T02:05:54.490Z,13.50
2023-04-14T02:08:23.320Z,13.93
2023-04-14T02:10:52.324Z,14.00
2023-04-14T02:13:21.063Z,14.53
2023-04-14T02:15:48.946Z,15.00
2023-04-14T02:18:23.262Z,13.23
2023-04-14T02:20:52.811Z,15.50
2023-04-14T02:23:19.798Z,15.67
2023-04-14T02:25:53.303Z,14.60
2023-04-14T02:28:23.736Z,15.07
2023-04-14T02:30:51.650Z,13.83
2023-04-14T02:33:22.953Z,14.67
2023-04-14T02:35:49.777Z,15.23
2023-04-14T02:38:22.480Z,15.63
2023-04-14T02:40:50.141Z,14.83
2023-04-14T02:43:40.430Z,16.27
2023-04-14T02:46:09.558Z,16.53
2023-04-14T02:48:38.256Z,17.13
2023-04-14T02:51:06.216Z,16.63
2023-04-14T02:53:33.689Z,16.43
2023-04-14T02:56:10.637Z,17.17
2023-04-14T02:58:40.700Z,15.00
2023-04-14T03:01:08.156Z,15.50
2023-04-14T03:03:37.824Z,14.60
2023-04-14T03:06:09.522Z,17.70
2023-04-14T03:08:37.566Z,17.93
2023-04-14T03:11:04.946Z,18.10
2023-04-14T03:13:33.846Z,17.33
2023-04-14T03:16:00.940Z,16.13
2023-04-14T03:18:29.802Z,14.30
2023-04-14T03:20:57.685Z,16.70
2023-04-14T03:23:25.519Z,14.77
2023-04-14T03:25:58.434Z,15.37
2023-04-14T03:28:30.627Z,15.30
2023-04-14T03:31:01.503Z,14.63
2023-04-14T03:33:35.831Z,16.43
2023-04-14T03:36:03.780Z,16.23
2023-04-14T03:38:32.003Z,17.87
2023-04-14T03:41:01.280Z,18.73
2023-04-14T03:43:29.017Z,17.83
2023-04-14T03:46:02.653Z,17.43
2023-04-14T03:48:31.587Z,17.33
2023-04-14T03:51:00.126Z,17.43
2023-04-14T03:53:28.255Z,18.67
2023-04-14T03:55:56.979Z,18.13
2023-04-14T03:58:25.567Z,18.03
2023-04-14T04:00:53.630Z,17.43
2023-04-14T04:03:21.905Z,19.27
2023-04-14T04:05:49.218Z,19.13
2023-04-14T04:08:16.325Z,20.23
2023-04-14T04:10:44.645Z,21.20
2023-04-14T04:13:13.440Z,19.47
2023-04-14T04:15:42.166Z,19.23
2023-04-14T04:18:11.482Z,17.73
2023-04-14T04:20:40.926Z,18.20
2023-04-14T04:23:08.753Z,20.23
2023-04-14T04:25:36.944Z,20.77
2023-04-14T04:28:15.087Z,19.37
2023-04-14T04:30:42.629Z,21.23
2023-04-14T04:33:10.928Z,22.00
2023-04-14T04:35:39.211Z,20.97
2023-04-14T04:38:11.526Z,20.13
2023-04-14T04:40:42.037Z,19.77
2023-04-14T04:43:19.502Z,18.87
2023-04-14T04:45:46.789Z,21.57
2023-04-14T04:48:13.593Z,20.33
2023-04-14T04:50:43.797Z,20.17
2023-04-14T04:53:12.416Z,21.00
2023-04-14T04:55:40.489Z,20.37
2023-04-14T04:58:07.388Z,20.87
2023-04-14T05:00:34.233Z,19.33
2023-04-14T05:03:01.420Z,20.77
2023-04-14T05:05:28.321Z,21.10
2023-04-14T05:07:55.137Z,20.73
2023-04-14T05:10:22.254Z,19.97
2023-04-14T05:12:49.059Z,20.93
2023-04-14T05:15:16.132Z,19.87
2023-04-14T05:17:44.514Z,20.80
2023-04-14T05:20:11.662Z,23.03
2023-04-14T05:22:38.612Z,23.30
2023-04-14T05:25:05.557Z,24.73
2023-04-14T05:27:32.776Z,23.53
2023-04-14T05:29:59.830Z,24.57
2023-04-14T05:32:29.201Z,23.23
2023-04-14T05:34:56.365Z,22.97
2023-04-14T05:37:23.261Z,23.27
2023-04-14T05:39:50.046Z,22.90
2023-04-14T05:42:17.041Z,22.67
2023-04-14T05:44:43.886Z,23.23
2023-04-14T05:47:10.666Z,22.57
2023-04-14T05:49:37.528Z,22.73
2023-04-14T05:52:04.540Z,23.23
2023-04-14T05:54:31.351Z,21.43
2023-04-14T05:56:58.353Z,23.07
2023-04-14T05:59:25.195Z,22.23
2023-04-14T06:01:52.138Z,20.87
2023-04-14T06:04:19.499Z,20.67
2023-04-14T06:06:46.499Z,22.53
2023-04-14T06:09:13.375Z,23.50
2023-04-14T06:11:40.654Z,22.10
2023-04-14T06:14:07.756Z,21.97
2023-04-14T06:16:34.718Z,22.73
2023-04-14T06:19:02.155Z,23.47
2023-04-14T06:21:29.350Z,23.50
2023-04-14T06:23:56.279Z,22.17
2023-04-14T06:26:23.114Z,23.00
2023-04-14T06:28:50.646Z,25.10
2023-04-14T06:31:17.515Z,41.73
2023-04-14T06:33:44.460Z,23.37
2023-04-14T06:36:11.602Z,23.07
2023-04-14T06:38:38.398Z,24.20
2023-04-14T06:41:06.149Z,23.53
2023-04-14T06:43:33.310Z,23.80
2023-04-14T06:46:00.282Z,22.93
2023-04-14T06:48:27.626Z,25.67
2023-04-14T06:50:56.094Z,24.83
2023-04-14T06:53:26.405Z,25.33
2023-04-14T06:55:59.725Z,23.53
2023-04-14T06:58:27.745Z,25.43
2023-04-14T07:00:57.939Z,26.63
2023-04-14T07:03:25.121Z,24.30
2023-04-14T07:05:53.256Z,26.60
2023-04-14T07:08:21.187Z,24.70
2023-04-14T07:10:48.356Z,25.63
2023-04-14T07:13:15.174Z,25.90
2023-04-14T07:15:45.811Z,26.50
2023-04-14T07:18:12.797Z,26.63
2023-04-14T07:20:39.648Z,27.80
2023-04-14T07:23:06.414Z,27.57
2023-04-14T07:25:35.164Z,25.67
2023-04-14T07:28:03.704Z,26.27
2023-04-14T07:30:31.707Z,27.27
2023-04-14T07:32:58.741Z,26.07
2023-04-14T07:35:26.461Z,25.20
2023-04-14T07:37:53.319Z,26.63
2023-04-14T07:40:20.494Z,24.93
2023-04-14T07:42:47.431Z,25.83
2023-04-14T07:45:14.424Z,43.43
2023-04-14T07:47:41.424Z,25.27
2023-04-14T07:50:08.425Z,22.90
2023-04-14T07:52:35.261Z,21.17
2023-04-14T07:55:02.150Z,22.90
2023-04-14T07:57:29.038Z,20.97
2023-04-14T07:59:55.879Z,20.97
2023-04-14T08:02:22.957Z,20.10
2023-04-14T08:04:50.055Z,19.70
2023-04-14T08:07:16.973Z,19.97
2023-04-14T08:09:43.912Z,18.47
2023-04-14T08:12:10.826Z,19.00
2023-04-14T08:14:38.096Z,21.63
2023-04-14T08:17:04.935Z,19.80
2023-04-14T08:19:33.937Z,20.03
2023-04-14T08:22:00.871Z,15.83
2023-04-14T08:24:27.817Z,16.53
2023-04-14T08:26:55.167Z,17.53
2023-04-14T08:29:22.991Z,17.20
2023-04-14T08:31:49.799Z,16.33
2023-04-14T08:34:21.229Z,15.83
2023-04-14T08:36:55.549Z,16.27
2023-04-14T08:39:22.699Z,16.43
2023-04-14T08:41:51.122Z,30.67
2023-04-14T08:44:18.156Z,15.63
2023-04-14T08:46:45.872Z,17.97
2023-04-14T08:49:15.036Z,18.77
2023-04-14T08:51:45.962Z,17.20
2023-04-14T08:54:12.944Z,16.50
2023-04-14T08:56:43.274Z,15.73
2023-04-14T08:59:10.762Z,14.47
2023-04-14T09:01:38.520Z,14.13
2023-04-14T09:04:06.607Z,14.07
2023-04-14T09:06:34.738Z,12.87
2023-04-14T09:09:05.523Z,13.70
2023-04-14T09:11:32.549Z,13.63
2023-04-14T09:14:00.016Z,13.23
2023-04-14T09:16:28.240Z,12.40
2023-04-14T09:18:55.641Z,14.93
2023-04-14T09:21:34.140Z,14.43
2023-04-14T09:24:12.052Z,14.17
2023-04-14T09:26:39.064Z,17.20
2023-04-14T09:29:06.282Z,15.67
2023-04-14T09:31:33.774Z,15.00
2023-04-14T09:34:01.132Z,16.03
2023-04-14T09:36:29.291Z,15.27
2023-04-14T09:38:57.445Z,18.13
2023-04-14T09:41:26.242Z,17.37
2023-04-14T09:43:53.213Z,16.83
2023-04-14T09:46:20.633Z,15.27
2023-04-14T09:48:52.275Z,16.50
2023-04-14T09:51:21.894Z,18.10
2023-04-14T09:53:48.769Z,16.07
2023-04-14T09:56:16.133Z,16.10
2023-04-14T09:58:44.166Z,13.33
2023-04-14T10:01:13.117Z,11.87
2023-04-14T10:03:41.287Z,12.40
2023-04-14T10:06:10.833Z,11.10
2023-04-14T10:08:38.627Z,10.60
2023-04-14T10:11:18.859Z,12.07
2023-04-14T10:13:55.841Z,10.87
2023-04-14T10:16:23.518Z,10.20
2023-04-14T10:18:51.145Z,9.10
2023-04-14T10:21:18.184Z,10.27
2023-04-14T10:23:45.353Z,10.07
2023-04-14T10:26:12.981Z,8.13
2023-04-14T10:28:43.971Z,9.07
2023-04-14T10:31:16.329Z,6.83
2023-04-14T10:33:43.386Z,6.87
2023-04-14T10:36:10.260Z,5.70
2023-04-14T10:38:40.000Z,6.23
2023-04-14T10:41:07.923Z,5.00
2023-04-14T10:43:36.868Z,6.70
2023-04-14T10:46:05.095Z,5.23
2023-04-14T10:48:33.580Z,6.33
2023-04-14T10:51:02.016Z,6.60
2023-04-14T10:53:37.106Z,6.40
2023-04-14T10:56:04.316Z,6.57
2023-04-14T10:58:33.784Z,5.83
2023-04-14T11:01:00.667Z,5.90
2023-04-14T11:03:31.122Z,5.97
2023-04-14T11:05:58.307Z,5.40
2023-04-14T11:08:26.835Z,4.17
2023-04-14T11:11:22.872Z,4.40
2023-04-14T11:14:09.700Z,3.83
2023-04-14T11:16:44.639Z,4.20
2023-04-14T11:19:18.263Z,4.27
2023-04-14T11:21:50.499Z,4.93
2023-04-14T11:24:18.209Z,5.10
2023-04-14T11:26:45.584Z,4.40
2023-04-14T11:29:12.475Z,4.20
2023-04-14T11:31:39.419Z,4.60
2023-04-14T11:34:09.353Z,4.47
2023-04-14T11:36:37.367Z,4.33
2023-04-14T11:39:04.410Z,4.53
2023-04-14T11:41:31.620Z,4.90
2023-04-14T11:43:59.316Z,4.50
2023-04-14T11:46:26.450Z,5.23
2023-04-14T11:48:56.834Z,4.63
2023-04-14T11:51:30.801Z,5.60
2023-04-14T11:53:58.886Z,5.93
2023-04-14T11:56:25.895Z,5.57
2023-04-14T11:58:59.661Z,7.20
2023-04-14T12:01:27.209Z,5.87
2023-04-14T12:03:54.364Z,4.47
2023-04-14T12:06:21.312Z,5.17
2023-04-14T12:08:54.938Z,4.97
2023-04-14T12:11:21.915Z,6.00
2023-04-14T12:13:49.661Z,6.27
2023-04-14T12:16:17.473Z,5.13
2023-04-14T12:18:44.623Z,5.80
2023-04-14T12:21:16.342Z,5.37
2023-04-14T12:23:45.261Z,6.03
2023-04-14T12:26:12.389Z,5.80
2023-04-14T12:28:42.258Z,5.87
2023-04-14T12:31:09.959Z,6.37
2023-04-14T12:33:37.042Z,5.23
2023-04-14T12:36:07.729Z,5.27
2023-04-14T12:38:35.207Z,4.80
2023-04-14T12:41:02.433Z,5.03
2023-04-14T12:43:30.437Z,4.83
2023-04-14T12:45:58.519Z,4.47
2023-04-14T12:48:47.123Z,4.53
2023-04-14T12:51:15.391Z,4.33
2023-04-14T12:53:42.787Z,4.60
2023-04-14T12:56:10.648Z,4.37
2023-04-14T12:58:38.555Z,3.93
2023-04-14T13:01:06.873Z,4.77
2023-04-14T13:03:45.080Z,5.00
2023-04-14T13:06:12.904Z,4.93
2023-04-14T13:08:44.849Z,4.57
2023-04-14T13:11:12.542Z,4.97
2023-04-14T13:13:39.450Z,4.70
2023-04-14T13:16:13.658Z,4.67
2023-04-14T13:18:42.684Z,5.67
2023-04-14T13:21:09.787Z,4.57
2023-04-14T13:23:37.027Z,4.63
2023-04-14T13:26:04.313Z,7.37
2023-04-14T13:28:31.707Z,5.70
2023-04-14T13:30:58.618Z,7.00
2023-04-14T13:33:26.010Z,10.00
2023-04-14T13:35:53.679Z,6.83
2023-04-14T13:38:20.522Z,7.53
2023-04-14T13:40:48.267Z,6.33
2023-04-14T13:43:16.171Z,5.73
2023-04-14T13:45:43.752Z,4.90
2023-04-14T13:48:10.726Z,7.07
2023-04-14T13:50:37.561Z,7.13
2023-04-14T13:53:04.507Z,8.40
2023-04-14T13:55:31.584Z,10.43
2023-04-14T13:57:58.388Z,6.07
2023-04-14T14:00:26.285Z,6.77
2023-04-14T14:02:53.933Z,6.30
2023-04-14T14:05:20.949Z,5.70
2023-04-14T14:07:47.780Z,5.63
2023-04-14T14:10:14.684Z,4.87
2023-04-14T14:12:41.810Z,5.07
2023-04-14T14:15:08.918Z,5.43
2023-04-14T14:17:37.014Z,4.70
2023-04-14T14:20:04.078Z,4.87
2023-04-14T14:22:30.984Z,5.33
2023-04-14T14:25:10.783Z,5.10
2023-04-14T14:27:45.081Z,4.70
2023-04-14T14:30:12.376Z,4.53
2023-04-14T14:32:39.279Z,5.13
2023-04-14T14:35:06.358Z,5.10
2023-04-14T14:37:33.266Z,4.60
2023-04-14T14:40:00.072Z,5.00
2023-04-14T14:42:27.109Z,5.27
2023-04-14T14:44:54.524Z,4.77
2023-04-14T14:47:21.576Z,5.27
2023-04-14T14:49:58.949Z,4.73
2023-04-14T14:52:34.553Z,4.27
2023-04-14T14:55:01.989Z,4.43
2023-04-14T14:57:29.262Z,4.63
2023-04-14T14:59:56.303Z,4.20
2023-04-14T15:02:23.624Z,5.50
2023-04-14T15:04:50.641Z,5.10
2023-04-14T15:07:17.835Z,5.03
2023-04-14T15:09:46.393Z,5.00
2023-04-14T15:12:13.499Z,4.93
2023-04-14T15:14:40.382Z,6.10
2023-04-14T15:17:07.303Z,5.13
2023-04-14T15:19:34.104Z,5.73
2023-04-14T15:22:01.704Z,5.80
2023-04-14T15:24:28.535Z,8.40
2023-04-14T15:26:56.249Z,6.60
2023-04-14T15:29:26.061Z,6.00
2023-04-14T15:31:53.157Z,5.80
2023-04-14T15:34:21.660Z,5.77
2023-04-14T15:36:48.582Z,4.93
2023-04-14T15:39:15.515Z,5.87
2023-04-14T15:41:42.424Z,6.27
2023-04-14T15:44:09.252Z,5.70
2023-04-14T15:46:36.232Z,6.23
2023-04-14T15:49:03.012Z,5.60
2023-04-14T15:51:29.884Z,6.10
2023-04-14T15:53:56.762Z,5.27
2023-04-14T15:56:23.849Z,5.97
2023-04-14T15:58:50.710Z,6.13
2023-04-14T16:01:17.746Z,7.00
2023-04-14T16:03:45.169Z,6.30
2023-04-14T16:06:12.405Z,6.30
2023-04-14T16:08:39.265Z,6.43
2023-04-14T16:11:06.255Z,7.60
2023-04-14T16:13:33.287Z,11.03
2023-04-14T16:16:00.346Z,10.27
2023-04-14T16:18:27.302Z,6.90
2023-04-14T16:20:54.187Z,6.20
2023-04-14T16:23:21.020Z,6.90
2023-04-14T16:25:48.620Z,6.27
2023-04-14T16:28:16.527Z,6.03
2023-04-14T16:30:43.340Z,6.30
2023-04-14T16:33:10.938Z,6.40
2023-04-14T16:35:37.955Z,6.50
2023-04-14T16:38:08.696Z,6.80
2023-04-14T16:40:36.271Z,7.13
2023-04-14T16:43:03.522Z,6.90
2023-04-14T16:45:33.354Z,6.17
2023-04-14T16:48:00.433Z,6.03
2023-04-14T16:50:27.556Z,8.47
2023-04-14T16:52:54.425Z,6.87
2023-04-14T16:55:21.279Z,5.67
2023-04-14T16:57:48.176Z,6.60
2023-04-14T17:00:15.237Z,6.50
2023-04-14T17:02:42.806Z,6.07
2023-04-14T17:05:11.343Z,7.07
2023-04-14T17:07:38.292Z,8.37
2023-04-14T17:10:05.284Z,10.90
2023-04-14T17:12:32.359Z,10.43
2023-04-14T17:15:00.672Z,9.13
2023-04-14T17:17:28.578Z,7.17
2023-04-14T17:19:56.875Z,10.83
2023-04-14T17:22:24.101Z,18.00
2023-04-14T17:24:50.921Z,16.37
2023-04-14T17:27:17.952Z,12.13
2023-04-14T17:29:45.027Z,17.70
2023-04-14T17:32:12.369Z,13.53
2023-04-14T17:34:39.364Z,11.10
2023-04-14T17:37:06.398Z,10.57
2023-04-14T17:39:33.228Z,11.57
2023-04-14T17:42:01.605Z,10.33
2023-04-14T17:44:32.082Z,9.33
2023-04-14T17:47:03.452Z,11.20
2023-04-14T17:49:31.689Z,10.23
2023-04-14T17:51:58.504Z,12.70
2023-04-14T17:54:25.616Z,9.57
2023-04-14T17:56:52.873Z,8.80
2023-04-14T17:59:20.468Z,8.47
2023-04-14T18:01:47.552Z,9.00
2023-04-14T18:04:14.490Z,8.57
2023-04-14T18:06:41.860Z,7.63
2023-04-14T18:09:09.495Z,6.77
2023-04-14T18:11:36.798Z,7.50
2023-04-14T18:14:04.168Z,8.03
2023-04-14T18:16:31.617Z,7.93
2023-04-14T18:18:58.447Z,8.47
2023-04-14T18:21:25.446Z,8.13
2023-04-14T18:28:53.000Z,8.40
2023-04-14T18:31:19.804Z,11.40
2023-04-14T18:33:46.931Z,9.93
2023-04-14T18:36:13.757Z,9.50
2023-04-14T18:38:40.688Z,8.53
2023-04-14T18:41:07.477Z,9.57
2023-04-14T18:43:35.060Z,10.30
2023-04-14T18:46:02.545Z,15.10
2023-04-14T18:48:29.487Z,34.07
2023-04-14T18:51:01.970Z,16.53
2023-04-14T18:53:28.933Z,20.77
2023-04-14T18:55:55.861Z,15.13
2023-04-14T18:58:23.164Z,10.83
2023-04-14T19:00:49.967Z,11.37
2023-04-14T19:03:17.267Z,11.17
2023-04-14T19:05:44.299Z,10.10
2023-04-14T19:08:11.196Z,12.20
2023-04-14T19:10:38.673Z,12.50
2023-04-14T19:13:06.012Z,10.87
2023-04-14T19:15:32.823Z,12.00
2023-04-14T19:17:59.707Z,12.40
2023-04-14T19:20:26.923Z,11.30
2023-04-14T19:22:53.866Z,11.33
2023-04-14T19:25:20.842Z,11.83
2023-04-14T19:27:47.615Z,11.23
2023-04-14T19:30:14.490Z,11.53
2023-04-14T19:32:41.698Z,11.43
2023-04-14T19:35:09.295Z,18.53
2023-04-14T19:37:36.264Z,11.63
2023-04-14T19:40:06.268Z,12.83
2023-04-14T19:42:33.632Z,12.47
2023-04-14T19:45:00.742Z,12.67
2023-04-14T19:47:27.824Z,11.87
2023-04-14T19:49:55.431Z,11.83
2023-04-14T19:52:22.572Z,11.83
2023-04-14T19:54:49.974Z,11.97
2023-04-14T19:57:17.094Z,11.93
2023-04-14T19:59:44.455Z,12.97
2023-04-14T20:02:13.487Z,12.30
2023-04-14T20:04:40.764Z,12.50
2023-04-14T20:07:07.768Z,13.03
2023-04-14T20:09:34.824Z,11.97
2023-04-14T20:12:02.508Z,12.50
2023-04-14T20:14:29.732Z,11.23
2023-04-14T20:16:56.983Z,12.00
2023-04-14T20:19:24.647Z,12.23
2023-04-14T20:21:51.573Z,12.73
2023-04-14T20:24:18.799Z,12.07
2023-04-14T20:26:45.789Z,10.97
2023-04-14T20:29:12.800Z,10.57
2023-04-14T20:31:41.804Z,10.47
2023-04-14T20:34:09.150Z,10.07
2023-04-14T20:36:36.782Z,10.57
2023-04-14T20:39:06.020Z,9.90
2023-04-14T20:41:33.945Z,9.33
2023-04-14T20:44:00.972Z,9.33
2023-04-14T20:46:28.193Z,9.70
2023-04-14T20:48:55.712Z,9.60
2023-04-14T20:51:22.888Z,8.70
2023-04-14T20:53:50.920Z,9.57
2023-04-14T20:56:18.001Z,8.30
2023-04-14T20:58:45.800Z,8.93
2023-04-14T21:01:12.746Z,9.80
2023-04-14T21:03:39.820Z,9.20
2023-04-14T21:06:06.896Z,8.97
2023-04-14T21:08:33.731Z,8.77
2023-04-14T21:11:15.545Z,9.83
2023-04-14T21:15:25.446Z,8.73
2023-04-14T21:16:31.066Z,3.43
2023-04-14T21:18:57.870Z,8.63
2023-04-14T21:21:24.721Z,8.93
2023-04-14T21:23:51.575Z,9.93
2023-04-14T21:26:19.104Z,9.47
2023-04-14T21:28:46.008Z,9.80
2023-04-14T21:31:12.930Z,10.00
2023-04-14T21:33:41.920Z,9.57
2023-04-14T21:36:12.049Z,9.80
2023-04-14T21:38:39.414Z,10.17
2023-04-14T21:41:06.509Z,10.33
2023-04-14T21:43:33.367Z,9.60
2023-04-14T21:46:00.505Z,10.27
2023-04-14T21:48:27.857Z,10.90
2023-04-14T21:50:54.707Z,10.60
2023-04-14T21:53:21.603Z,10.07
2023-04-14T21:56:09.398Z,10.80
2023-04-14T21:58:35.399Z,10.93
2023-04-14T22:01:02.278Z,11.47
2023-04-14T22:03:29.301Z,11.00
2023-04-14T22:05:56.266Z,9.80
2023-04-14T22:08:24.246Z,10.23
2023-04-14T22:10:52.581Z,10.20
2023-04-14T22:13:19.373Z,11.50
2023-04-14T22:15:46.981Z,10.97
2023-04-14T22:18:13.911Z,11.13
2023-04-14T22:20:40.783Z,10.43
2023-04-14T22:23:07.542Z,9.83
2023-04-14T22:25:35.147Z,9.50
2023-04-14T22:28:01.913Z,9.97
2023-04-14T22:30:28.837Z,10.10
2023-04-14T22:32:56.299Z,10.40
2023-04-14T22:35:23.408Z,10.77
2023-04-14T22:37:50.221Z,11.03
2023-04-14T22:40:17.160Z,10.90
2023-04-14T22:42:44.014Z,9.83
2023-04-14T22:45:10.869Z,10.33
2023-04-14T22:47:37.899Z,10.27
2023-04-14T22:50:04.853Z,10.30
2023-04-14T22:52:31.901Z,10.07
2023-04-14T22:54:58.778Z,10.03
2023-04-14T22:57:26.788Z,11.17
2023-04-14T22:59:53.906Z,9.70
2023-04-14T23:02:21.577Z,10.63
2023-04-14T23:04:48.683Z,10.37
2023-04-14T23:07:15.714Z,10.33
2023-04-14T23:09:42.622Z,10.53
2023-04-14T23:12:09.831Z,10.87
2023-04-14T23:14:36.976Z,11.23
2023-04-14T23:17:04.413Z,9.93
2023-04-14T23:19:33.231Z,10.40
2023-04-14T23:22:00.072Z,10.23
2023-04-14T23:24:26.960Z,9.00
2023-04-14T23:26:54.590Z,9.90
2023-04-14T23:29:21.610Z,9.67
2023-04-14T23:31:48.595Z,9.80
2023-04-14T23:34:15.446Z,9.77
2023-04-14T23:36:42.671Z,10.57
2023-04-14T23:39:09.491Z,10.07
2023-04-14T23:41:37.114Z,10.00
2023-04-14T23:44:04.048Z,9.27
2023-04-14T23:46:31.074Z,9.30
2023-04-14T23:48:58.194Z,9.63
2023-04-14T23:51:27.270Z,9.47
2023-04-14T23:53:54.256Z,9.43
2023-04-14T23:56:21.574Z,9.30
2023-04-14T23:58:48.724Z,10.03
